sensor_id;sensor_type;location;lat;lon;timestamp;P1;durP1;ratioP1;P2;durP2;ratioP2
46653;SDS011;38960;51.074;17.004;2022-12-07T00:01:22;6.50;;;3.97;;
46653;SDS011;38960;51.074;17.004;2022-12-07T00:03:59;5.97;;;3.43;;
46653;SDS011;38960;51.074;17.004;2022-12-07T00:09:05;4.30;;;2.97;;
46653;SDS011;38960;51.074;17.004;2022-12-07T00:11:32;5.57;;;3.20;;
46653;SDS011;38960;51.074;17.004;2022-12-07T00:13:59;3.63;;;2.67;;
46653;SDS011;38960;51.074;17.004;2022-12-07T00:16:26;6.07;;;2.87;;
46653;SDS011;38960;51.074;17.004;2022-12-07T00:18:54;6.07;;;2.80;;
46653;SDS011;38960;51.074;17.004;2022-12-07T00:21:21;6.80;;;3.13;;
46653;SDS011;38960;51.074;17.004;2022-12-07T00:23:48;3.75;;;2.90;;
46653;SDS011;38960;51.074;17.004;2022-12-07T00:26:16;4.67;;;2.73;;
46653;SDS011;38960;51.074;17.004;2022-12-07T00:28:46;2.80;;;2.40;;
46653;SDS011;38960;51.074;17.004;2022-12-07T00:31:16;4.00;;;2.20;;
46653;SDS011;38960;51.074;17.004;2022-12-07T00:33:43;4.53;;;2.70;;
46653;SDS011;38960;51.074;17.004;2022-12-07T00:36:09;3.93;;;2.23;;
46653;SDS011;38960;51.074;17.004;2022-12-07T00:38:38;3.72;;;2.17;;
46653;SDS011;38960;51.074;17.004;2022-12-07T00:41:05;3.53;;;2.30;;
46653;SDS011;38960;51.074;17.004;2022-12-07T00:43:41;3.47;;;2.40;;
46653;SDS011;38960;51.074;17.004;2022-12-07T00:46:08;2.80;;;2.10;;
46653;SDS011;38960;51.074;17.004;2022-12-07T00:48:34;3.30;;;2.30;;
46653;SDS011;38960;51.074;17.004;2022-12-07T00:50:59;3.03;;;2.00;;
46653;SDS011;38960;51.074;17.004;2022-12-07T00:53:26;2.72;;;2.17;;
46653;SDS011;38960;51.074;17.004;2022-12-07T00:55:52;2.90;;;2.23;;
46653;SDS011;38960;51.074;17.004;2022-12-07T00:58:18;3.67;;;1.93;;
46653;SDS011;38960;51.074;17.004;2022-12-07T01:00:44;2.70;;;1.90;;
46653;SDS011;38960;51.074;17.004;2022-12-07T01:03:11;3.77;;;2.20;;
46653;SDS011;38960;51.074;17.004;2022-12-07T01:05:37;2.97;;;2.23;;
46653;SDS011;38960;51.074;17.004;2022-12-07T01:08:03;2.80;;;2.10;;
46653;SDS011;38960;51.074;17.004;2022-12-07T01:10:29;3.40;;;1.67;;
46653;SDS011;38960;51.074;17.004;2022-12-07T01:12:57;4.50;;;1.77;;
46653;SDS011;38960;51.074;17.004;2022-12-07T01:15:22;3.03;;;1.83;;
46653;SDS011;38960;51.074;17.004;2022-12-07T01:17:48;2.13;;;1.70;;
46653;SDS011;38960;51.074;17.004;2022-12-07T01:20:14;4.60;;;1.83;;
46653;SDS011;38960;51.074;17.004;2022-12-07T01:22:41;7.30;;;1.83;;
46653;SDS011;38960;51.074;17.004;2022-12-07T01:25:08;2.53;;;1.88;;
46653;SDS011;38960;51.074;17.004;2022-12-07T01:27:35;3.03;;;1.87;;
46653;SDS011;38960;51.074;17.004;2022-12-07T01:30:01;1.80;;;1.60;;
46653;SDS011;38960;51.074;17.004;2022-12-07T01:32:27;3.17;;;1.93;;
46653;SDS011;38960;51.074;17.004;2022-12-07T01:34:54;2.50;;;1.57;;
46653;SDS011;38960;51.074;17.004;2022-12-07T01:37:19;3.03;;;1.60;;
46653;SDS011;38960;51.074;17.004;2022-12-07T01:39:47;2.67;;;1.67;;
46653;SDS011;38960;51.074;17.004;2022-12-07T01:42:14;2.43;;;1.50;;
46653;SDS011;38960;51.074;17.004;2022-12-07T01:47:43;2.78;;;1.60;;
46653;SDS011;38960;51.074;17.004;2022-12-07T01:50:09;3.77;;;1.70;;
46653;SDS011;38960;51.074;17.004;2022-12-07T01:52:35;2.45;;;1.48;;
46653;SDS011;38960;51.074;17.004;2022-12-07T01:55:03;3.23;;;1.33;;
46653;SDS011;38960;51.074;17.004;2022-12-07T01:57:30;5.13;;;1.60;;
46653;SDS011;38960;51.074;17.004;2022-12-07T01:59:58;3.90;;;1.83;;
46653;SDS011;38960;51.074;17.004;2022-12-07T02:02:39;3.93;;;1.50;;
46653;SDS011;38960;51.074;17.004;2022-12-07T02:05:08;2.70;;;1.40;;
46653;SDS011;38960;51.074;17.004;2022-12-07T02:07:34;2.67;;;1.30;;
46653;SDS011;38960;51.074;17.004;2022-12-07T02:10:14;2.90;;;1.60;;
46653;SDS011;38960;51.074;17.004;2022-12-07T02:12:42;1.93;;;1.13;;
46653;SDS011;38960;51.074;17.004;2022-12-07T02:15:10;1.47;;;1.00;;
46653;SDS011;38960;51.074;17.004;2022-12-07T02:20:14;2.23;;;1.53;;
46653;SDS011;38960;51.074;17.004;2022-12-07T02:23:12;3.00;;;1.33;;
46653;SDS011;38960;51.074;17.004;2022-12-07T02:30:58;2.57;;;1.33;;
46653;SDS011;38960;51.074;17.004;2022-12-07T02:36:00;2.40;;;1.00;;
46653;SDS011;38960;51.074;17.004;2022-12-07T02:41:36;3.20;;;1.30;;
46653;SDS011;38960;51.074;17.004;2022-12-07T02:43:59;1.30;;;1.00;;
46653;SDS011;38960;51.074;17.004;2022-12-07T02:46:29;2.00;;;1.13;;
46653;SDS011;38960;51.074;17.004;2022-12-07T02:48:56;3.00;;;1.20;;
46653;SDS011;38960;51.074;17.004;2022-12-07T02:51:25;2.70;;;1.20;;
46653;SDS011;38960;51.074;17.004;2022-12-07T02:53:51;2.03;;;1.00;;
46653;SDS011;38960;51.074;17.004;2022-12-07T03:04:43;2.05;;;0.88;;
46653;SDS011;38960;51.074;17.004;2022-12-07T03:13:28;2.53;;;1.30;;
46653;SDS011;38960;51.074;17.004;2022-12-07T03:15:46;1.90;;;1.10;;
46653;SDS011;38960;51.074;17.004;2022-12-07T03:18:27;1.57;;;0.73;;
46653;SDS011;38960;51.074;17.004;2022-12-07T03:20:57;1.60;;;1.10;;
46653;SDS011;38960;51.074;17.004;2022-12-07T03:23:25;1.87;;;1.10;;
46653;SDS011;38960;51.074;17.004;2022-12-07T03:25:52;1.47;;;1.30;;
46653;SDS011;38960;51.074;17.004;2022-12-07T03:28:22;7.28;;;1.40;;
46653;SDS011;38960;51.074;17.004;2022-12-07T03:31:00;2.03;;;1.20;;
46653;SDS011;38960;51.074;17.004;2022-12-07T03:33:29;2.33;;;1.03;;
46653;SDS011;38960;51.074;17.004;2022-12-07T03:36:00;1.77;;;1.23;;
46653;SDS011;38960;51.074;17.004;2022-12-07T03:41:08;2.47;;;0.90;;
46653;SDS011;38960;51.074;17.004;2022-12-07T03:43:35;2.53;;;1.10;;
46653;SDS011;38960;51.074;17.004;2022-12-07T03:52:00;1.58;;;1.00;;
46653;SDS011;38960;51.074;17.004;2022-12-07T03:54:45;2.17;;;1.20;;
46653;SDS011;38960;51.074;17.004;2022-12-07T03:57:15;1.13;;;0.90;;
46653;SDS011;38960;51.074;17.004;2022-12-07T03:59:41;1.90;;;1.10;;
46653;SDS011;38960;51.074;17.004;2022-12-07T04:02:07;1.40;;;1.00;;
46653;SDS011;38960;51.074;17.004;2022-12-07T04:04:33;2.13;;;0.97;;
46653;SDS011;38960;51.074;17.004;2022-12-07T04:06:59;2.00;;;0.97;;
46653;SDS011;38960;51.074;17.004;2022-12-07T04:09:25;1.63;;;1.10;;
46653;SDS011;38960;51.074;17.004;2022-12-07T04:11:51;2.30;;;0.93;;
46653;SDS011;38960;51.074;17.004;2022-12-07T04:14:16;1.50;;;1.00;;
46653;SDS011;38960;51.074;17.004;2022-12-07T04:19:14;1.73;;;0.83;;
46653;SDS011;38960;51.074;17.004;2022-12-07T04:21:40;1.57;;;1.10;;
46653;SDS011;38960;51.074;17.004;2022-12-07T04:24:06;3.57;;;1.20;;
46653;SDS011;38960;51.074;17.004;2022-12-07T04:26:32;2.90;;;1.23;;
46653;SDS011;38960;51.074;17.004;2022-12-07T04:28:58;1.60;;;1.30;;
46653;SDS011;38960;51.074;17.004;2022-12-07T04:31:23;1.20;;;1.00;;
46653;SDS011;38960;51.074;17.004;2022-12-07T04:33:49;1.23;;;1.00;;
46653;SDS011;38960;51.074;17.004;2022-12-07T04:36:14;1.63;;;1.00;;
46653;SDS011;38960;51.074;17.004;2022-12-07T04:38:40;1.97;;;1.33;;
46653;SDS011;38960;51.074;17.004;2022-12-07T04:41:06;1.43;;;1.20;;
46653;SDS011;38960;51.074;17.004;2022-12-07T04:43:32;1.07;;;0.97;;
46653;SDS011;38960;51.074;17.004;2022-12-07T04:45:57;1.83;;;1.17;;
46653;SDS011;38960;51.074;17.004;2022-12-07T04:48:23;3.50;;;1.40;;
46653;SDS011;38960;51.074;17.004;2022-12-07T04:50:48;1.20;;;1.10;;
46653;SDS011;38960;51.074;17.004;2022-12-07T04:53:17;1.67;;;1.23;;
46653;SDS011;38960;51.074;17.004;2022-12-07T04:55:43;2.77;;;1.60;;
46653;SDS011;38960;51.074;17.004;2022-12-07T04:58:09;2.03;;;1.63;;
46653;SDS011;38960;51.074;17.004;2022-12-07T05:00:35;1.77;;;1.30;;
46653;SDS011;38960;51.074;17.004;2022-12-07T05:03:00;1.80;;;1.60;;
46653;SDS011;38960;51.074;17.004;2022-12-07T05:05:26;2.23;;;1.40;;
46653;SDS011;38960;51.074;17.004;2022-12-07T05:07:51;2.13;;;1.50;;
46653;SDS011;38960;51.074;17.004;2022-12-07T05:10:17;3.13;;;2.07;;
46653;SDS011;38960;51.074;17.004;2022-12-07T05:12:43;3.70;;;1.50;;
46653;SDS011;38960;51.074;17.004;2022-12-07T05:15:08;2.30;;;1.67;;
46653;SDS011;38960;51.074;17.004;2022-12-07T05:17:34;2.37;;;1.80;;
46653;SDS011;38960;51.074;17.004;2022-12-07T05:20:00;2.33;;;1.80;;
46653;SDS011;38960;51.074;17.004;2022-12-07T05:22:25;2.90;;;2.20;;
46653;SDS011;38960;51.074;17.004;2022-12-07T05:24:56;3.23;;;2.27;;
46653;SDS011;38960;51.074;17.004;2022-12-07T05:27:21;2.90;;;1.90;;
46653;SDS011;38960;51.074;17.004;2022-12-07T05:29:47;2.70;;;1.80;;
46653;SDS011;38960;51.074;17.004;2022-12-07T05:32:14;3.03;;;2.50;;
46653;SDS011;38960;51.074;17.004;2022-12-07T05:34:40;3.17;;;2.47;;
46653;SDS011;38960;51.074;17.004;2022-12-07T05:37:05;5.17;;;3.20;;
46653;SDS011;38960;51.074;17.004;2022-12-07T05:39:31;8.83;;;3.77;;
46653;SDS011;38960;51.074;17.004;2022-12-07T05:41:56;6.53;;;3.80;;
46653;SDS011;38960;51.074;17.004;2022-12-07T05:44:41;8.20;;;4.60;;
46653;SDS011;38960;51.074;17.004;2022-12-07T05:47:08;11.10;;;5.83;;
46653;SDS011;38960;51.074;17.004;2022-12-07T05:49:33;9.83;;;5.67;;
46653;SDS011;38960;51.074;17.004;2022-12-07T05:51:59;11.97;;;6.03;;
46653;SDS011;38960;51.074;17.004;2022-12-07T05:54:25;10.05;;;5.95;;
46653;SDS011;38960;51.074;17.004;2022-12-07T05:56:51;10.53;;;6.10;;
46653;SDS011;38960;51.074;17.004;2022-12-07T05:59:16;9.43;;;6.33;;
46653;SDS011;38960;51.074;17.004;2022-12-07T06:01:48;10.10;;;5.93;;
46653;SDS011;38960;51.074;17.004;2022-12-07T06:04:15;10.23;;;6.93;;
46653;SDS011;38960;51.074;17.004;2022-12-07T06:06:41;11.93;;;7.13;;
46653;SDS011;38960;51.074;17.004;2022-12-07T06:09:06;9.18;;;6.80;;
46653;SDS011;38960;51.074;17.004;2022-12-07T06:11:32;11.60;;;7.80;;
46653;SDS011;38960;51.074;17.004;2022-12-07T06:14:16;10.70;;;7.57;;
46653;SDS011;38960;51.074;17.004;2022-12-07T06:16:41;10.27;;;7.17;;
46653;SDS011;38960;51.074;17.004;2022-12-07T06:19:07;9.80;;;7.57;;
46653;SDS011;38960;51.074;17.004;2022-12-07T06:21:32;10.73;;;8.17;;
46653;SDS011;38960;51.074;17.004;2022-12-07T06:23:58;10.73;;;8.20;;
46653;SDS011;38960;51.074;17.004;2022-12-07T06:26:23;10.87;;;7.90;;
46653;SDS011;38960;51.074;17.004;2022-12-07T06:28:49;10.80;;;7.80;;
46653;SDS011;38960;51.074;17.004;2022-12-07T06:31:14;12.80;;;8.82;;
46653;SDS011;38960;51.074;17.004;2022-12-07T06:33:40;10.03;;;8.17;;
46653;SDS011;38960;51.074;17.004;2022-12-07T06:36:06;10.97;;;9.00;;
46653;SDS011;38960;51.074;17.004;2022-12-07T06:38:32;10.80;;;7.97;;
46653;SDS011;38960;51.074;17.004;2022-12-07T06:40:58;11.13;;;8.37;;
46653;SDS011;38960;51.074;17.004;2022-12-07T06:43:23;11.77;;;8.57;;
46653;SDS011;38960;51.074;17.004;2022-12-07T06:45:49;12.57;;;8.77;;
46653;SDS011;38960;51.074;17.004;2022-12-07T06:48:14;12.77;;;8.50;;
46653;SDS011;38960;51.074;17.004;2022-12-07T06:50:40;13.50;;;8.37;;
46653;SDS011;38960;51.074;17.004;2022-12-07T06:53:05;10.63;;;8.47;;
46653;SDS011;38960;51.074;17.004;2022-12-07T06:55:30;12.73;;;9.20;;
46653;SDS011;38960;51.074;17.004;2022-12-07T06:57:56;12.27;;;9.30;;
46653;SDS011;38960;51.074;17.004;2022-12-07T07:00:22;13.70;;;9.57;;
46653;SDS011;38960;51.074;17.004;2022-12-07T07:02:47;10.57;;;8.63;;
46653;SDS011;38960;51.074;17.004;2022-12-07T07:05:12;12.40;;;8.43;;
46653;SDS011;38960;51.074;17.004;2022-12-07T07:07:38;12.63;;;8.98;;
46653;SDS011;38960;51.074;17.004;2022-12-07T07:10:04;10.77;;;8.27;;
46653;SDS011;38960;51.074;17.004;2022-12-07T07:12:30;10.10;;;8.23;;
46653;SDS011;38960;51.074;17.004;2022-12-07T07:14:55;12.53;;;8.13;;
46653;SDS011;38960;51.074;17.004;2022-12-07T07:17:21;10.90;;;8.43;;
46653;SDS011;38960;51.074;17.004;2022-12-07T07:19:47;11.20;;;8.27;;
46653;SDS011;38960;51.074;17.004;2022-12-07T07:22:12;10.47;;;7.87;;
46653;SDS011;38960;51.074;17.004;2022-12-07T07:24:38;13.23;;;8.40;;
46653;SDS011;38960;51.074;17.004;2022-12-07T07:27:03;13.00;;;9.10;;
46653;SDS011;38960;51.074;17.004;2022-12-07T07:29:29;10.00;;;8.00;;
46653;SDS011;38960;51.074;17.004;2022-12-07T07:31:54;10.90;;;8.30;;
46653;SDS011;38960;51.074;17.004;2022-12-07T07:34:20;11.17;;;8.40;;
46653;SDS011;38960;51.074;17.004;2022-12-07T07:36:45;10.20;;;8.33;;
46653;SDS011;38960;51.074;17.004;2022-12-07T07:39:11;10.97;;;8.17;;
46653;SDS011;38960;51.074;17.004;2022-12-07T07:41:37;11.00;;;7.90;;
46653;SDS011;38960;51.074;17.004;2022-12-07T07:44:03;12.27;;;8.37;;
46653;SDS011;38960;51.074;17.004;2022-12-07T07:46:29;11.50;;;8.17;;
46653;SDS011;38960;51.074;17.004;2022-12-07T07:48:54;11.27;;;8.50;;
46653;SDS011;38960;51.074;17.004;2022-12-07T07:51:20;11.13;;;8.47;;
46653;SDS011;38960;51.074;17.004;2022-12-07T07:53:45;11.13;;;8.17;;
46653;SDS011;38960;51.074;17.004;2022-12-07T07:56:11;9.97;;;8.43;;
46653;SDS011;38960;51.074;17.004;2022-12-07T07:58:37;11.10;;;8.20;;
46653;SDS011;38960;51.074;17.004;2022-12-07T08:01:07;10.67;;;8.23;;
46653;SDS011;38960;51.074;17.004;2022-12-07T08:03:33;11.40;;;8.43;;
46653;SDS011;38960;51.074;17.004;2022-12-07T08:05:59;11.50;;;8.27;;
46653;SDS011;38960;51.074;17.004;2022-12-07T08:08:24;11.47;;;7.97;;
46653;SDS011;38960;51.074;17.004;2022-12-07T08:10:50;10.43;;;7.70;;
46653;SDS011;38960;51.074;17.004;2022-12-07T08:13:16;11.47;;;8.77;;
46653;SDS011;38960;51.074;17.004;2022-12-07T08:15:42;10.80;;;7.90;;
46653;SDS011;38960;51.074;17.004;2022-12-07T08:18:09;10.93;;;8.30;;
46653;SDS011;38960;51.074;17.004;2022-12-07T08:20:35;11.87;;;8.67;;
46653;SDS011;38960;51.074;17.004;2022-12-07T08:23:02;11.00;;;9.00;;
46653;SDS011;38960;51.074;17.004;2022-12-07T08:25:28;11.40;;;8.45;;
46653;SDS011;38960;51.074;17.004;2022-12-07T08:27:54;10.37;;;8.67;;
46653;SDS011;38960;51.074;17.004;2022-12-07T08:30:19;11.33;;;8.77;;
46653;SDS011;38960;51.074;17.004;2022-12-07T08:32:46;10.93;;;8.00;;
46653;SDS011;38960;51.074;17.004;2022-12-07T08:35:11;11.17;;;8.60;;
46653;SDS011;38960;51.074;17.004;2022-12-07T08:37:38;12.63;;;9.73;;
46653;SDS011;38960;51.074;17.004;2022-12-07T08:40:04;12.00;;;8.97;;
46653;SDS011;38960;51.074;17.004;2022-12-07T08:42:30;17.23;;;10.80;;
46653;SDS011;38960;51.074;17.004;2022-12-07T08:45:06;13.00;;;9.30;;
46653;SDS011;38960;51.074;17.004;2022-12-07T08:47:34;15.20;;;10.00;;
46653;SDS011;38960;51.074;17.004;2022-12-07T08:50:00;13.73;;;9.38;;
46653;SDS011;38960;51.074;17.004;2022-12-07T08:52:29;13.88;;;9.75;;
46653;SDS011;38960;51.074;17.004;2022-12-07T08:54:55;14.23;;;9.38;;
46653;SDS011;38960;51.074;17.004;2022-12-07T08:57:21;14.60;;;9.35;;
46653;SDS011;38960;51.074;17.004;2022-12-07T08:59:46;13.02;;;9.18;;
46653;SDS011;38960;51.074;17.004;2022-12-07T09:02:12;14.15;;;9.07;;
46653;SDS011;38960;51.074;17.004;2022-12-07T09:04:37;14.55;;;8.90;;
46653;SDS011;38960;51.074;17.004;2022-12-07T09:07:03;11.57;;;7.97;;
46653;SDS011;38960;51.074;17.004;2022-12-07T09:09:29;13.20;;;8.73;;
46653;SDS011;38960;51.074;17.004;2022-12-07T09:11:54;12.88;;;8.20;;
46653;SDS011;38960;51.074;17.004;2022-12-07T09:14:21;11.15;;;7.82;;
46653;SDS011;38960;51.074;17.004;2022-12-07T09:16:46;10.80;;;7.32;;
46653;SDS011;38960;51.074;17.004;2022-12-07T09:19:12;12.40;;;8.00;;
46653;SDS011;38960;51.074;17.004;2022-12-07T09:21:37;16.40;;;9.27;;
46653;SDS011;38960;51.074;17.004;2022-12-07T09:24:03;10.93;;;7.10;;
46653;SDS011;38960;51.074;17.004;2022-12-07T09:26:28;11.65;;;7.47;;
46653;SDS011;38960;51.074;17.004;2022-12-07T09:28:54;9.40;;;6.93;;
46653;SDS011;38960;51.074;17.004;2022-12-07T09:31:20;9.38;;;6.97;;
46653;SDS011;38960;51.074;17.004;2022-12-07T09:33:45;14.70;;;8.25;;
46653;SDS011;38960;51.074;17.004;2022-12-07T09:36:11;13.07;;;8.38;;
46653;SDS011;38960;51.074;17.004;2022-12-07T09:38:36;8.50;;;6.65;;
46653;SDS011;38960;51.074;17.004;2022-12-07T09:41:06;9.20;;;6.68;;
46653;SDS011;38960;51.074;17.004;2022-12-07T09:43:32;9.32;;;6.63;;
46653;SDS011;38960;51.074;17.004;2022-12-07T09:45:59;8.15;;;5.60;;
46653;SDS011;38960;51.074;17.004;2022-12-07T09:48:29;12.13;;;6.78;;
46653;SDS011;38960;51.074;17.004;2022-12-07T09:50:57;7.85;;;5.65;;
46653;SDS011;38960;51.074;17.004;2022-12-07T09:53:27;10.45;;;6.22;;
46653;SDS011;38960;51.074;17.004;2022-12-07T09:55:55;8.15;;;5.97;;
46653;SDS011;38960;51.074;17.004;2022-12-07T09:58:25;9.73;;;6.38;;
46653;SDS011;38960;51.074;17.004;2022-12-07T10:01:05;8.25;;;5.15;;
46653;SDS011;38960;51.074;17.004;2022-12-07T10:03:35;9.45;;;6.00;;
46653;SDS011;38960;51.074;17.004;2022-12-07T10:06:04;8.73;;;5.97;;
46653;SDS011;38960;51.074;17.004;2022-12-07T10:08:30;6.47;;;4.25;;
46653;SDS011;38960;51.074;17.004;2022-12-07T10:10:56;8.48;;;5.25;;
46653;SDS011;38960;51.074;17.004;2022-12-07T10:13:34;7.85;;;5.20;;
46653;SDS011;38960;51.074;17.004;2022-12-07T10:16:01;7.35;;;5.00;;
46653;SDS011;38960;51.074;17.004;2022-12-07T10:18:34;5.45;;;4.22;;
46653;SDS011;38960;51.074;17.004;2022-12-07T10:21:25;8.00;;;5.40;;
46653;SDS011;38960;51.074;17.004;2022-12-07T10:26:31;8.98;;;5.35;;
46653;SDS011;38960;51.074;17.004;2022-12-07T10:29:17;8.93;;;6.15;;
46653;SDS011;38960;51.074;17.004;2022-12-07T10:31:46;10.10;;;6.15;;
46653;SDS011;38960;51.074;17.004;2022-12-07T10:34:27;12.63;;;6.70;;
46653;SDS011;38960;51.074;17.004;2022-12-07T10:42:28;9.07;;;6.10;;
46653;SDS011;38960;51.074;17.004;2022-12-07T10:45:14;7.32;;;4.78;;
46653;SDS011;38960;51.074;17.004;2022-12-07T11:01:59;4.30;;;2.40;;
46653;SDS011;38960;51.074;17.004;2022-12-07T11:07:10;4.07;;;2.65;;
46653;SDS011;38960;51.074;17.004;2022-12-07T11:15:24;9.25;;;3.00;;
46653;SDS011;38960;51.074;17.004;2022-12-07T11:18:03;3.83;;;2.83;;
46653;SDS011;38960;51.074;17.004;2022-12-07T11:20:41;7.05;;;2.92;;
46653;SDS011;38960;51.074;17.004;2022-12-07T11:33:55;4.25;;;2.50;;
46653;SDS011;38960;51.074;17.004;2022-12-07T11:41:36;3.20;;;2.55;;
46653;SDS011;38960;51.074;17.004;2022-12-07T11:47:02;2.85;;;2.25;;
46653;SDS011;38960;51.074;17.004;2022-12-07T11:52:44;5.13;;;2.30;;
46653;SDS011;38960;51.074;17.004;2022-12-07T11:55:18;3.25;;;2.53;;
46653;SDS011;38960;51.074;17.004;2022-12-07T11:57:48;2.97;;;1.83;;
46653;SDS011;38960;51.074;17.004;2022-12-07T12:00:17;5.05;;;2.50;;
46653;SDS011;38960;51.074;17.004;2022-12-07T12:07:42;4.47;;;2.50;;
46653;SDS011;38960;51.074;17.004;2022-12-07T12:10:17;5.38;;;2.92;;
46653;SDS011;38960;51.074;17.004;2022-12-07T12:16:28;5.47;;;3.13;;
46653;SDS011;38960;51.074;17.004;2022-12-07T12:21:57;4.00;;;2.55;;
46653;SDS011;38960;51.074;17.004;2022-12-07T12:24:29;4.53;;;2.70;;
46653;SDS011;38960;51.074;17.004;2022-12-07T12:27:23;3.80;;;2.88;;
46653;SDS011;38960;51.074;17.004;2022-12-07T12:29:51;4.13;;;3.28;;
46653;SDS011;38960;51.074;17.004;2022-12-07T12:32:39;3.80;;;2.60;;
46653;SDS011;38960;51.074;17.004;2022-12-07T12:40:52;4.50;;;2.65;;
46653;SDS011;38960;51.074;17.004;2022-12-07T12:54:35;5.07;;;2.70;;
46653;SDS011;38960;51.074;17.004;2022-12-07T12:59:36;4.88;;;2.85;;
46653;SDS011;38960;51.074;17.004;2022-12-07T13:15:34;5.57;;;3.03;;
46653;SDS011;38960;51.074;17.004;2022-12-07T13:20:55;5.93;;;2.80;;
46653;SDS011;38960;51.074;17.004;2022-12-07T13:24:07;4.30;;;2.83;;
46653;SDS011;38960;51.074;17.004;2022-12-07T13:34:05;5.75;;;3.10;;
46653;SDS011;38960;51.074;17.004;2022-12-07T13:36:51;4.70;;;2.87;;
46653;SDS011;38960;51.074;17.004;2022-12-07T13:39:20;5.20;;;2.75;;
46653;SDS011;38960;51.074;17.004;2022-12-07T13:41:52;6.90;;;3.10;;
46653;SDS011;38960;51.074;17.004;2022-12-07T13:44:19;6.70;;;3.10;;
46653;SDS011;38960;51.074;17.004;2022-12-07T13:49:41;6.00;;;3.17;;
46653;SDS011;38960;51.074;17.004;2022-12-07T13:57:12;8.40;;;3.67;;
46653;SDS011;38960;51.074;17.004;2022-12-07T13:59:37;6.70;;;4.15;;
46653;SDS011;38960;51.074;17.004;2022-12-07T14:02:17;7.57;;;3.88;;
46653;SDS011;38960;51.074;17.004;2022-12-07T14:05:08;6.73;;;4.10;;
46653;SDS011;38960;51.074;17.004;2022-12-07T14:07:34;7.80;;;4.03;;
46653;SDS011;38960;51.074;17.004;2022-12-07T14:10:05;8.27;;;3.90;;
46653;SDS011;38960;51.074;17.004;2022-12-07T14:12:31;9.35;;;4.03;;
46653;SDS011;38960;51.074;17.004;2022-12-07T14:14:58;6.15;;;4.30;;
46653;SDS011;38960;51.074;17.004;2022-12-07T14:17:25;6.90;;;4.07;;
46653;SDS011;38960;51.074;17.004;2022-12-07T14:19:56;7.60;;;4.78;;
46653;SDS011;38960;51.074;17.004;2022-12-07T14:24:48;7.07;;;4.30;;
46653;SDS011;38960;51.074;17.004;2022-12-07T14:27:20;7.57;;;4.13;;
46653;SDS011;38960;51.074;17.004;2022-12-07T14:29:47;7.20;;;3.70;;
46653;SDS011;38960;51.074;17.004;2022-12-07T14:34:55;7.73;;;4.00;;
46653;SDS011;38960;51.074;17.004;2022-12-07T14:37:42;7.57;;;4.07;;
46653;SDS011;38960;51.074;17.004;2022-12-07T14:40:12;6.93;;;4.00;;
46653;SDS011;38960;51.074;17.004;2022-12-07T14:42:39;6.70;;;3.97;;
46653;SDS011;38960;51.074;17.004;2022-12-07T14:45:05;7.00;;;4.60;;
46653;SDS011;38960;51.074;17.004;2022-12-07T14:47:31;8.35;;;4.38;;
46653;SDS011;38960;51.074;17.004;2022-12-07T14:49:57;8.60;;;4.60;;
46653;SDS011;38960;51.074;17.004;2022-12-07T14:52:23;7.23;;;4.03;;
46653;SDS011;38960;51.074;17.004;2022-12-07T14:54:51;7.85;;;4.70;;
46653;SDS011;38960;51.074;17.004;2022-12-07T14:57:16;11.00;;;5.37;;
46653;SDS011;38960;51.074;17.004;2022-12-07T14:59:42;8.15;;;4.00;;
46653;SDS011;38960;51.074;17.004;2022-12-07T15:02:09;5.10;;;3.70;;
46653;SDS011;38960;51.074;17.004;2022-12-07T15:04:36;6.60;;;4.05;;
46653;SDS011;38960;51.074;17.004;2022-12-07T15:07:02;9.67;;;3.90;;
46653;SDS011;38960;51.074;17.004;2022-12-07T15:09:29;8.23;;;4.13;;
46653;SDS011;38960;51.074;17.004;2022-12-07T15:11:55;6.47;;;3.80;;
46653;SDS011;38960;51.074;17.004;2022-12-07T15:14:20;7.00;;;4.05;;
46653;SDS011;38960;51.074;17.004;2022-12-07T15:16:46;6.53;;;4.22;;
46653;SDS011;38960;51.074;17.004;2022-12-07T15:19:15;9.65;;;4.80;;
46653;SDS011;38960;51.074;17.004;2022-12-07T15:21:47;7.30;;;4.63;;
46653;SDS011;38960;51.074;17.004;2022-12-07T15:24:13;7.47;;;4.13;;
46653;SDS011;38960;51.074;17.004;2022-12-07T15:26:39;8.43;;;4.63;;
46653;SDS011;38960;51.074;17.004;2022-12-07T15:29:05;6.97;;;4.18;;
46653;SDS011;38960;51.074;17.004;2022-12-07T15:31:32;7.13;;;4.47;;
46653;SDS011;38960;51.074;17.004;2022-12-07T15:33:58;7.43;;;4.13;;
46653;SDS011;38960;51.074;17.004;2022-12-07T15:36:24;7.13;;;4.63;;
46653;SDS011;38960;51.074;17.004;2022-12-07T15:38:51;11.40;;;4.87;;
46653;SDS011;38960;51.074;17.004;2022-12-07T15:41:17;8.17;;;4.60;;
46653;SDS011;38960;51.074;17.004;2022-12-07T15:43:43;7.95;;;5.00;;
46653;SDS011;38960;51.074;17.004;2022-12-07T15:46:31;10.35;;;5.35;;
46653;SDS011;38960;51.074;17.004;2022-12-07T15:49:08;10.30;;;5.60;;
46653;SDS011;38960;51.074;17.004;2022-12-07T15:51:36;12.47;;;6.33;;
46653;SDS011;38960;51.074;17.004;2022-12-07T15:54:01;10.20;;;5.90;;
46653;SDS011;38960;51.074;17.004;2022-12-07T15:56:26;12.18;;;7.15;;
46653;SDS011;38960;51.074;17.004;2022-12-07T15:58:52;13.47;;;7.60;;
46653;SDS011;38960;51.074;17.004;2022-12-07T16:01:19;15.73;;;7.80;;
46653;SDS011;38960;51.074;17.004;2022-12-07T16:03:44;9.63;;;5.83;;
46653;SDS011;38960;51.074;17.004;2022-12-07T16:06:11;11.00;;;5.63;;
46653;SDS011;38960;51.074;17.004;2022-12-07T16:08:37;9.87;;;5.50;;
46653;SDS011;38960;51.074;17.004;2022-12-07T16:11:07;7.97;;;5.03;;
46653;SDS011;38960;51.074;17.004;2022-12-07T16:13:33;7.20;;;4.13;;
46653;SDS011;38960;51.074;17.004;2022-12-07T16:16:02;7.83;;;4.13;;
46653;SDS011;38960;51.074;17.004;2022-12-07T16:18:33;8.68;;;4.50;;
46653;SDS011;38960;51.074;17.004;2022-12-07T16:20:58;8.77;;;4.20;;
46653;SDS011;38960;51.074;17.004;2022-12-07T16:23:24;6.75;;;4.00;;
46653;SDS011;38960;51.074;17.004;2022-12-07T16:25:49;7.93;;;4.43;;
46653;SDS011;38960;51.074;17.004;2022-12-07T16:28:15;8.20;;;4.20;;
46653;SDS011;38960;51.074;17.004;2022-12-07T16:30:41;7.95;;;4.22;;
46653;SDS011;38960;51.074;17.004;2022-12-07T16:33:06;6.43;;;3.63;;
46653;SDS011;38960;51.074;17.004;2022-12-07T16:35:32;7.83;;;4.07;;
46653;SDS011;38960;51.074;17.004;2022-12-07T16:37:57;8.10;;;4.43;;
46653;SDS011;38960;51.074;17.004;2022-12-07T16:40:23;8.00;;;4.07;;
46653;SDS011;38960;51.074;17.004;2022-12-07T16:42:48;11.40;;;5.13;;
46653;SDS011;38960;51.074;17.004;2022-12-07T16:45:14;9.27;;;4.75;;
46653;SDS011;38960;51.074;17.004;2022-12-07T16:47:40;8.65;;;4.25;;
46653;SDS011;38960;51.074;17.004;2022-12-07T16:50:05;8.83;;;4.40;;
46653;SDS011;38960;51.074;17.004;2022-12-07T16:52:32;7.78;;;3.95;;
46653;SDS011;38960;51.074;17.004;2022-12-07T16:54:58;9.50;;;4.53;;
46653;SDS011;38960;51.074;17.004;2022-12-07T16:57:24;7.60;;;4.03;;
46653;SDS011;38960;51.074;17.004;2022-12-07T16:59:50;6.23;;;4.13;;
46653;SDS011;38960;51.074;17.004;2022-12-07T17:02:16;8.50;;;4.70;;
46653;SDS011;38960;51.074;17.004;2022-12-07T17:04:41;9.38;;;4.47;;
46653;SDS011;38960;51.074;17.004;2022-12-07T17:07:07;8.57;;;4.87;;
46653;SDS011;38960;51.074;17.004;2022-12-07T17:09:33;6.57;;;3.73;;
46653;SDS011;38960;51.074;17.004;2022-12-07T17:12:00;13.20;;;6.27;;
46653;SDS011;38960;51.074;17.004;2022-12-07T17:14:26;11.75;;;5.50;;
46653;SDS011;38960;51.074;17.004;2022-12-07T17:17:10;10.87;;;5.17;;
46653;SDS011;38960;51.074;17.004;2022-12-07T17:19:35;8.60;;;4.43;;
46653;SDS011;38960;51.074;17.004;2022-12-07T17:22:01;9.77;;;3.87;;